Time;durP1;ratioP1;P1;durP2;ratioP2;P2;SDS_P1;SDS_P2;PMS_P1;PMS_P2;Temp;Humidity;BMP_temperature;BMP_pressure;BME280_temperature;BME280_humidity;BME280_pressure;Samples;Min_cycle;Max_cycle;Signal;HPM_P1;HPM_P2
2023/07/03 00:02:08;;;;;;;13.85;5.07;;;15.20;99.90;;;;;;5067191;28;20043;-87
2023/07/03 00:04:35;;;;;;;15.63;5.95;;;15.10;99.90;;;;;;5068024;28;20053;-89
2023/07/03 00:07:05;;;;;;;8.88;5.05;;;15.10;99.90;;;;;;5069006;28;20084;-88
2023/07/03 00:09:31;;;;;;;15.18;5.07;;;15.10;99.90;;;;;;5052391;28;20040;-88
2023/07/03 00:11:57;;;;;;;14.75;5.72;;;15.20;99.90;;;;;;5068479;28;20043;-88
2023/07/03 00:14:23;;;;;;;13.27;5.72;;;15.10;99.90;;;;;;5069853;28;20041;-88
2023/07/03 00:16:49;;;;;;;14.07;6.60;;;15.50;99.90;;;;;;5051141;28;20334;-89
2023/07/03 00:19:15;;;;;;;12.05;5.75;;;15.30;99.90;;;;;;5051454;28;20052;-89
2023/07/03 00:21:44;;;;;;;17.77;5.55;;;15.10;99.90;;;;;;5052384;28;20051;-91
2023/07/03 00:24:11;;;;;;;13.90;6.00;;;15.10;99.90;;;;;;5057146;28;20230;-91
2023/07/03 00:26:37;;;;;;;17.45;5.28;;;15.20;99.90;;;;;;5052314;28;20036;-91
2023/07/03 00:29:03;;;;;;;16.85;6.25;;;15.60;99.90;;;;;;5064138;28;20094;-89
2023/07/03 00:31:29;;;;;;;13.65;5.30;;;15.20;99.90;;;;;;5052274;28;20059;-90
2023/07/03 00:33:55;;;;;;;17.35;6.45;;;15.20;99.90;;;;;;5052044;28;20779;-89
2023/07/03 00:36:21;;;;;;;15.88;5.72;;;15.60;99.90;;;;;;5051981;28;20044;-88
2023/07/03 00:38:47;;;;;;;13.18;5.20;;;15.30;99.90;;;;;;5052224;28;20040;-89
2023/07/03 00:41:12;;;;;;;13.73;5.68;;;15.30;99.90;;;;;;5052213;28;20476;-87
2023/07/03 00:43:42;;;;;;;12.07;5.10;;;15.20;99.90;;;;;;5067423;28;20045;-88
2023/07/03 00:46:11;;;;;;;15.93;5.78;;;15.30;99.90;;;;;;5052326;28;20049;-88
2023/07/03 00:48:39;;;;;;;14.48;5.10;;;15.70;99.90;;;;;;5069547;28;20052;-88
2023/07/03 00:51:05;;;;;;;16.70;5.68;;;15.30;99.90;;;;;;5051623;28;20049;-88
2023/07/03 00:53:30;;;;;;;15.20;5.43;;;15.30;99.90;;;;;;5067638;28;20051;-89
2023/07/03 00:55:56;;;;;;;15.20;5.05;;;15.30;99.90;;;;;;5051315;28;20121;-89
2023/07/03 00:58:22;;;;;;;14.18;5.05;;;15.30;99.90;;;;;;5067740;28;20052;-89
2023/07/03 01:00:56;;;;;;;13.52;5.53;;;15.30;99.90;;;;;;5051267;28;20045;-88
2023/07/03 01:03:40;;;;;;;13.05;4.80;;;15.30;99.90;;;;;;5067869;28;20078;-87
2023/07/03 01:06:10;;;;;;;16.63;5.20;;;15.90;99.90;;;;;;5050952;28;20055;-88
2023/07/03 01:08:37;;;;;;;14.43;5.57;;;15.30;99.90;;;;;;5068086;28;20054;-89
2023/07/03 01:11:06;;;;;;;16.70;5.75;;;15.30;99.90;;;;;;5067833;28;20416;-87
2023/07/03 01:13:34;;;;;;;15.68;5.30;;;15.50;99.90;;;;;;5068324;28;20458;-88
2023/07/03 01:16:04;;;;;;;16.23;5.65;;;15.40;99.90;;;;;;5050803;28;20044;-88
2023/07/03 01:18:31;;;;;;;14.15;5.45;;;15.40;99.90;;;;;;5067861;28;20853;-88
2023/07/03 01:21:14;;;;;;;12.27;4.53;;;15.40;99.90;;;;;;5067370;28;20542;-88
2023/07/03 01:23:46;;;;;;;13.63;5.18;;;15.50;99.90;;;;;;5061722;28;20098;-88
2023/07/03 01:26:14;;;;;;;14.43;4.75;;;15.50;99.90;;;;;;5059096;28;20091;-89
2023/07/03 01:28:43;;;;;;;12.77;4.82;;;15.30;99.90;;;;;;5067378;28;20033;-89
2023/07/03 01:31:10;;;;;;;17.50;5.50;;;15.30;99.90;;;;;;5050358;28;20044;-89
2023/07/03 01:33:40;;;;;;;14.98;4.93;;;15.50;99.90;;;;;;5046991;28;20041;-89
2023/07/03 01:36:07;;;;;;;14.02;4.93;;;15.90;99.90;;;;;;5056790;28;20512;-87
2023/07/03 01:38:34;;;;;;;19.02;5.20;;;15.50;99.90;;;;;;5069320;28;20052;-90
2023/07/03 01:41:00;;;;;;;17.33;5.95;;;15.50;99.90;;;;;;5050764;28;20519;-88
2023/07/03 01:43:27;;;;;;;18.70;5.65;;;15.50;99.90;;;;;;5043287;28;20045;-88
2023/07/03 01:45:52;;;;;;;13.00;4.82;;;15.50;99.90;;;;;;5047263;28;20052;-90
2023/07/03 01:48:18;;;;;;;15.70;5.35;;;15.50;99.90;;;;;;5047451;28;20044;-90
2023/07/03 01:50:47;;;;;;;22.30;5.85;;;16.00;99.90;;;;;;5037616;28;20052;-88
2023/07/03 01:53:26;;;;;;;14.63;5.47;;;15.50;99.90;;;;;;5051132;28;20109;-88
2023/07/03 01:55:59;;;;;;;15.32;5.38;;;15.50;99.90;;;;;;5069848;28;20049;-89
2023/07/03 01:58:38;;;;;;;12.18;4.85;;;15.50;99.90;;;;;;5068533;28;20052;-88
2023/07/03 02:01:07;;;;;;;16.77;5.00;;;15.60;99.90;;;;;;5047353;28;20048;-89
2023/07/03 02:03:51;;;;;;;15.70;4.68;;;16.00;99.90;;;;;;5068007;28;20045;-88
2023/07/03 02:06:25;;;;;;;16.52;4.90;;;15.60;99.90;;;;;;5051104;28;20089;-89
2023/07/03 02:08:53;;;;;;;20.67;5.20;;;15.50;99.90;;;;;;5052498;28;20044;-90
2023/07/03 02:11:21;;;;;;;13.40;4.75;;;15.50;99.90;;;;;;5068974;28;20051;-89
2023/07/03 02:13:47;;;;;;;21.20;5.50;;;15.60;99.90;;;;;;5067977;28;20514;-89
2023/07/03 02:16:15;;;;;;;18.60;5.18;;;15.20;99.90;;;;;;5050861;28;20060;-89
2023/07/03 02:18:47;;;;;;;16.13;5.28;;;15.60;99.90;;;;;;5068550;28;20083;-90
2023/07/03 02:21:14;;;;;;;21.95;6.35;;;15.60;99.90;;;;;;5052447;28;20048;-88
2023/07/03 02:23:40;;;;;;;17.92;5.40;;;15.90;99.90;;;;;;5054180;28;20097;-90
2023/07/03 02:26:09;;;;;;;14.43;5.32;;;15.50;99.90;;;;;;5054898;28;20349;-89
2023/07/03 02:28:35;;;;;;;13.90;4.95;;;15.80;99.90;;;;;;5070707;28;20048;-90
2023/07/03 02:31:01;;;;;;;13.85;6.00;;;15.60;99.90;;;;;;5071731;28;20384;-90
2023/07/03 02:33:27;;;;;;;18.20;5.13;;;15.60;99.90;;;;;;5071818;28;20044;-89
2023/07/03 02:35:52;;;;;;;14.02;4.32;;;15.60;99.90;;;;;;5072550;28;20107;-90
2023/07/03 02:38:18;;;;;;;17.95;5.50;;;15.50;99.90;;;;;;5055404;28;20056;-88
2023/07/03 02:40:43;;;;;;;16.95;5.45;;;15.50;99.90;;;;;;5051302;28;20063;-88
2023/07/03 02:43:09;;;;;;;21.27;5.43;;;15.60;99.90;;;;;;5042787;28;20102;-89
2023/07/03 02:45:40;;;;;;;16.15;5.13;;;15.60;99.90;;;;;;5054047;28;20039;-88
2023/07/03 02:48:07;;;;;;;18.08;5.50;;;15.60;99.90;;;;;;5069942;28;20052;-89
2023/07/03 02:50:33;;;;;;;21.92;6.07;;;15.80;99.90;;;;;;5053714;28;20052;-89
2023/07/03 02:52:58;;;;;;;13.98;4.97;;;15.60;99.90;;;;;;5053155;28;20152;-88
2023/07/03 02:55:24;;;;;;;23.92;5.38;;;15.60;99.90;;;;;;5053273;28;20400;-87
2023/07/03 02:57:50;;;;;;;12.52;4.75;;;15.50;99.90;;;;;;5069537;28;20059;-88
2023/07/03 03:00:16;;;;;;;17.38;5.80;;;15.60;99.90;;;;;;5069290;28;20036;-88
2023/07/03 03:02:43;;;;;;;19.15;5.38;;;15.60;99.90;;;;;;5052257;28;20072;-90
2023/07/03 03:05:09;;;;;;;17.63;6.07;;;15.60;99.90;;;;;;5069773;28;20045;-88
2023/07/03 03:07:36;;;;;;;16.38;5.07;;;15.60;99.90;;;;;;5070676;28;20049;-89
2023/07/03 03:10:03;;;;;;;17.60;5.38;;;15.60;99.90;;;;;;5069673;28;20054;-88
2023/07/03 03:12:29;;;;;;;14.98;5.57;;;15.60;99.90;;;;;;5067484;28;20053;-88
2023/07/03 03:14:54;;;;;;;12.25;4.60;;;15.50;99.90;;;;;;5069330;28;20048;-88
2023/07/03 03:17:20;;;;;;;17.35;4.82;;;15.50;99.90;;;;;;5052304;28;20055;-89
2023/07/03 03:19:45;;;;;;;12.50;4.13;;;15.50;99.90;;;;;;5069379;28;20056;-88
2023/07/03 03:22:11;;;;;;;8.52;3.90;;;15.40;99.90;;;;;;5069992;28;20041;-88
2023/07/03 03:24:37;;;;;;;12.68;4.13;;;15.40;99.90;;;;;;5052373;28;20040;-88
2023/07/03 03:27:06;;;;;;;16.50;4.13;;;15.10;99.90;;;;;;5069998;28;20127;-89
2023/07/03 03:29:33;;;;;;;9.50;3.33;;;15.30;99.90;;;;;;5052813;28;20076;-88
2023/07/03 03:31:59;;;;;;;11.20;3.30;;;15.60;99.90;;;;;;5051364;28;20136;-89
2023/07/03 03:34:24;;;;;;;10.95;3.05;;;15.50;99.90;;;;;;5051628;28;20120;-89
2023/07/03 03:36:54;;;;;;;10.00;3.30;;;15.20;99.90;;;;;;5070003;28;20054;-88
2023/07/03 03:39:23;;;;;;;10.30;3.40;;;15.30;99.90;;;;;;5069713;28;20052;-90
2023/07/03 03:41:48;;;;;;;12.75;3.65;;;15.20;99.90;;;;;;5069211;28;20055;-88
2023/07/03 03:44:14;;;;;;;5.30;2.40;;;15.10;99.90;;;;;;5055857;28;20201;-87
2023/07/03 03:46:39;;;;;;;10.32;3.00;;;15.50;99.90;;;;;;5071407;28;20124;-87
2023/07/03 03:49:05;;;;;;;7.57;2.63;;;15.00;99.90;;;;;;5051874;28;20067;-88
2023/07/03 03:51:31;;;;;;;7.30;3.22;;;15.30;99.90;;;;;;5068817;28;20055;-89
2023/07/03 03:53:57;;;;;;;8.48;2.97;;;15.00;99.90;;;;;;5052483;28;20045;-89
2023/07/03 03:56:22;;;;;;;10.32;3.40;;;14.80;99.90;;;;;;5052747;28;20446;-88
2023/07/03 03:58:48;;;;;;;9.75;3.00;;;14.70;99.90;;;;;;5065441;28;20045;-90
2023/07/03 04:01:15;;;;;;;10.85;3.50;;;14.70;99.90;;;;;;5052859;28;20040;-90
2023/07/03 04:03:40;;;;;;;10.13;3.00;;;15.00;99.90;;;;;;5069057;28;20127;-89
2023/07/03 04:06:07;;;;;;;8.50;3.15;;;14.70;99.90;;;;;;5067972;28;20049;-88
2023/07/03 04:08:33;;;;;;;6.90;3.03;;;14.60;99.90;;;;;;5069375;28;20057;-90
2023/07/03 04:10:58;;;;;;;5.75;2.40;;;14.50;99.90;;;;;;5068788;28;20404;-89
2023/07/03 04:13:24;;;;;;;10.75;2.85;;;14.50;99.90;;;;;;5068583;28;20530;-89
2023/07/03 04:15:53;;;;;;;7.47;2.47;;;14.50;99.90;;;;;;5052297;28;20040;-89
2023/07/03 04:18:20;;;;;;;5.28;2.58;;;14.50;99.90;;;;;;5052501;28;20094;-89
2023/07/03 04:20:46;;;;;;;10.52;2.70;;;14.50;99.90;;;;;;5052198;28;20131;-89
2023/07/03 04:23:11;;;;;;;10.15;3.22;;;14.60;99.90;;;;;;5051474;28;20119;-90
2023/07/03 04:25:37;;;;;;;8.63;2.75;;;14.60;99.90;;;;;;5050488;28;20056;-89
2023/07/03 04:28:03;;;;;;;9.77;3.05;;;14.50;99.90;;;;;;5052289;28;20424;-88
2023/07/03 04:30:29;;;;;;;8.38;2.85;;;14.50;99.90;;;;;;5051868;28;20111;-88
2023/07/03 04:32:54;;;;;;;12.20;2.92;;;14.70;99.90;;;;;;5068849;28;20037;-89
2023/07/03 04:35:21;;;;;;;7.75;2.50;;;14.60;99.90;;;;;;5051657;28;20130;-90
2023/07/03 04:37:47;;;;;;;5.38;2.35;;;14.60;99.90;;;;;;5052447;28;20055;-89
2023/07/03 04:40:13;;;;;;;10.00;2.72;;;14.70;99.90;;;;;;5067435;28;20040;-89
2023/07/03 04:42:39;;;;;;;10.20;2.53;;;15.10;99.90;;;;;;5051161;28;20052;-89
2023/07/03 04:45:08;;;;;;;7.43;2.40;;;15.10;99.90;;;;;;5068715;28;20127;-90
2023/07/03 04:47:37;;;;;;;6.82;2.10;;;14.80;99.90;;;;;;5069951;28;20063;-91
2023/07/03 04:50:05;;;;;;;6.80;2.30;;;14.90;99.90;;;;;;5052895;28;20060;-89
2023/07/03 04:52:31;;;;;;;8.05;2.20;;;15.00;99.90;;;;;;5069275;28;20416;-89
2023/07/03 04:54:56;;;;;;;5.65;1.92;;;15.10;99.90;;;;;;5051953;28;20050;-89
2023/07/03 04:57:22;;;;;;;6.93;2.03;;;15.20;99.90;;;;;;5051955;28;20133;-88
2023/07/03 04:59:48;;;;;;;6.93;1.77;;;15.10;99.90;;;;;;5068605;28;20048;-90
2023/07/03 05:02:17;;;;;;;6.03;1.70;;;15.10;99.90;;;;;;5052233;28;20411;-90
2023/07/03 05:04:43;;;;;;;9.18;2.55;;;15.10;99.90;;;;;;5066527;28;20052;-90
2023/07/03 05:07:09;;;;;;;5.15;1.67;;;15.10;99.90;;;;;;5065383;28;20044;-87
2023/07/03 05:09:34;;;;;;;9.57;2.47;;;15.20;99.90;;;;;;5047839;28;20044;-89
2023/07/03 05:12:10;;;;;;;7.38;2.40;;;15.30;99.90;;;;;;5068283;28;20037;-91
2023/07/03 05:14:35;;;;;;;6.07;2.00;;;15.50;99.90;;;;;;5056061;28;20040;-89
2023/07/03 05:17:02;;;;;;;6.95;1.58;;;15.50;99.90;;;;;;5061069;28;20501;-89
2023/07/03 05:19:28;;;;;;;4.93;1.88;;;15.60;99.90;;;;;;5063701;28;20045;-92
2023/07/03 05:21:53;;;;;;;5.43;1.50;;;15.90;99.90;;;;;;5053376;28;20109;-90
2023/07/03 05:24:19;;;;;;;6.30;1.90;;;15.70;99.90;;;;;;5070250;28;20041;-89
2023/07/03 05:26:45;;;;;;;5.90;1.83;;;15.60;99.90;;;;;;5070293;28;20048;-89
2023/07/03 05:29:12;;;;;;;6.20;2.03;;;15.70;99.90;;;;;;5053646;28;20365;-92
2023/07/03 05:31:38;;;;;;;7.28;1.80;;;15.70;99.90;;;;;;5052943;28;20041;-90
2023/07/03 05:34:03;;;;;;;5.65;2.10;;;15.80;99.90;;;;;;5052847;28;20044;-90
2023/07/03 05:36:30;;;;;;;8.98;2.25;;;16.60;99.90;;;;;;5049227;28;20040;-91
2023/07/03 05:38:55;;;;;;;7.20;1.95;;;17.70;99.90;;;;;;5069108;28;20044;-90
2023/07/03 05:41:22;;;;;;;5.90;2.05;;;18.70;99.90;;;;;;5061268;28;20109;-90
2023/07/03 05:43:48;;;;;;;6.88;2.35;;;19.80;99.90;;;;;;5068585;28;20193;-88
2023/07/03 05:46:14;;;;;;;6.05;1.88;;;20.30;99.90;;;;;;5047330;28;20529;-87
2023/07/03 05:48:39;;;;;;;7.03;2.50;;;20.70;99.90;;;;;;5049798;28;20480;-88
2023/07/03 05:51:05;;;;;;;5.75;1.67;;;20.90;98.20;;;;;;5051702;28;20045;-89
2023/07/03 05:53:31;;;;;;;6.78;1.70;;;21.60;97.60;;;;;;5053189;28;20041;-89
2023/07/03 05:55:57;;;;;;;7.63;1.92;;;21.70;96.50;;;;;;5053216;28;20041;-88
2023/07/03 05:58:27;;;;;;;5.50;1.88;;;22.60;95.40;;;;;;5056177;28;20091;-91
2023/07/03 06:00:54;;;;;;;6.35;1.80;;;22.30;92.10;;;;;;5057580;28;20047;-90
2023/07/03 06:03:24;;;;;;;5.97;1.67;;;22.10;93.00;;;;;;5057429;28;20162;-88
2023/07/03 06:05:50;;;;;;;5.25;1.60;;;21.90;92.60;;;;;;5068902;28;20045;-87
2023/07/03 06:08:16;;;;;;;5.88;1.77;;;22.50;92.00;;;;;;5054613;28;20044;-88
2023/07/03 06:10:42;;;;;;;7.63;1.83;;;22.60;91.70;;;;;;5072477;28;20098;-91
2023/07/03 06:13:07;;;;;;;7.18;1.80;;;22.60;91.30;;;;;;5057647;28;20047;-91
2023/07/03 06:15:36;;;;;;;5.78;1.70;;;22.70;90.40;;;;;;5072845;28;20147;-86
2023/07/03 06:18:05;;;;;;;10.27;1.92;;;23.00;89.90;;;;;;5068521;28;20424;-88
2023/07/03 06:20:30;;;;;;;7.07;1.75;;;22.60;89.50;;;;;;5069057;28;20093;-87
2023/07/03 06:22:56;;;;;;;6.07;1.33;;;22.70;88.40;;;;;;5069750;28;20416;-88
2023/07/03 06:25:22;;;;;;;7.43;1.70;;;23.10;88.50;;;;;;5052998;28;20059;-87
2023/07/03 06:27:48;;;;;;;5.85;1.50;;;22.80;88.10;;;;;;5069061;28;20040;-88
2023/07/03 06:30:14;;;;;;;5.70;1.73;;;22.60;87.90;;;;;;5067826;28;20041;-86
2023/07/03 06:32:40;;;;;;;6.97;1.40;;;22.80;88.20;;;;;;5069388;28;20527;-86
2023/07/03 06:35:06;;;;;;;5.05;1.52;;;22.10;87.20;;;;;;5068301;28;20090;-88
2023/07/03 06:37:32;;;;;;;5.97;1.60;;;22.20;86.70;;;;;;5067155;28;20114;-86
2023/07/03 06:39:58;;;;;;;5.28;1.60;;;22.00;87.10;;;;;;5069613;28;20059;-83
2023/07/03 06:42:24;;;;;;;5.28;1.60;;;21.90;88.60;;;;;;5066795;28;20041;-89
2023/07/03 06:44:49;;;;;;;4.45;1.58;;;21.10;89.70;;;;;;5083166;28;20047;-87
2023/07/03 06:47:15;;;;;;;4.25;1.55;;;20.60;90.80;;;;;;5069107;28;20103;-88
2023/07/03 06:49:41;;;;;;;4.88;1.70;;;20.30;91.50;;;;;;5068976;28;20048;-90
2023/07/03 06:52:08;;;;;;;9.70;2.33;;;20.20;92.40;;;;;;5069518;28;20084;-89
2023/07/03 06:54:34;;;;;;;4.70;1.60;;;19.70;92.70;;;;;;5051800;28;20155;-87
2023/07/03 06:56:59;;;;;;;7.45;1.98;;;19.60;92.90;;;;;;5068667;28;20136;-87
2023/07/03 06:59:25;;;;;;;5.50;1.70;;;19.40;93.40;;;;;;5052117;28;20036;-86
2023/07/03 07:01:51;;;;;;;6.68;1.80;;;19.60;94.30;;;;;;5069390;28;20763;-86
2023/07/03 07:04:16;;;;;;;5.13;1.70;;;19.40;94.30;;;;;;5068402;28;20051;-87
2023/07/03 07:06:42;;;;;;;6.40;1.60;;;19.40;94.50;;;;;;5067617;28;20584;-87
2023/07/03 07:09:08;;;;;;;9.23;2.28;;;19.30;94.40;;;;;;5052023;28;20037;-86
2023/07/03 07:11:35;;;;;;;5.53;1.92;;;19.50;94.20;;;;;;5069523;28;20128;-90
2023/07/03 07:14:03;;;;;;;6.88;1.60;;;19.40;93.90;;;;;;5052219;28;20049;-86
2023/07/03 07:16:35;;;;;;;5.38;1.80;;;19.60;94.00;;;;;;5067970;28;20080;-86
2023/07/03 07:19:02;;;;;;;;;;;19.60;93.00;;;;;;5069464;28;20054;-86
2023/07/03 07:21:34;;;;;;;5.13;1.88;;;19.20;90.50;;;;;;5051468;28;20003;-86
2023/07/03 07:24:02;;;;;;;3.60;1.65;;;19.10;93.00;;;;;;5069504;28;20044;-86
2023/07/03 07:26:33;;;;;;;8.38;1.80;;;19.00;93.30;;;;;;5067950;28;20053;-86
2023/07/03 07:28:59;;;;;;;3.80;1.58;;;18.70;93.20;;;;;;5067997;28;20044;-84
2023/07/03 07:31:26;;;;;;;5.45;1.42;;;19.20;93.40;;;;;;5064130;28;20037;-86
2023/07/03 07:33:52;;;;;;;4.90;1.73;;;18.90;93.40;;;;;;5048223;28;20563;-84
2023/07/03 07:36:20;;;;;;;6.38;1.95;;;19.00;93.40;;;;;;5048965;28;20048;-84
2023/07/03 07:38:48;;;;;;;6.28;1.50;;;18.90;93.30;;;;;;5056622;28;20662;-85
2023/07/03 07:41:14;;;;;;;4.35;1.90;;;19.10;92.80;;;;;;5069228;28;20113;-86
2023/07/03 07:43:39;;;;;;;6.35;1.67;;;19.30;92.80;;;;;;5068446;28;20076;-85
2023/07/03 07:46:05;;;;;;;6.55;1.67;;;19.50;92.00;;;;;;5069484;28;20044;-85
2023/07/03 07:48:32;;;;;;;5.95;1.67;;;19.70;91.20;;;;;;5068178;28;20049;-85
2023/07/03 07:50:57;;;;;;;8.25;1.65;;;19.80;91.30;;;;;;5069502;28;20048;-85
2023/07/03 07:53:23;;;;;;;5.90;1.50;;;19.70;91.00;;;;;;5064775;28;20113;-83
2023/07/03 07:55:48;;;;;;;7.00;1.73;;;19.70;91.00;;;;;;5069032;28;20041;-85
2023/07/03 07:58:14;;;;;;;3.60;1.23;;;19.60;90.90;;;;;;5067644;28;20052;-84
2023/07/03 08:00:40;;;;;;;6.80;1.20;;;19.70;91.10;;;;;;5068367;28;20530;-85
2023/07/03 08:03:06;;;;;;;4.78;1.30;;;19.70;90.80;;;;;;5065338;28;20431;-84
2023/07/03 08:05:32;;;;;;;5.47;1.60;;;19.50;90.20;;;;;;5067948;28;20041;-85
2023/07/03 08:07:58;;;;;;;4.85;1.20;;;19.60;90.40;;;;;;5062497;28;20047;-84
2023/07/03 08:10:24;;;;;;;4.20;1.25;;;19.80;90.70;;;;;;5060651;28;20419;-86
2023/07/03 08:12:52;;;;;;;4.63;1.70;;;19.70;90.80;;;;;;5050731;28;20124;-85
2023/07/03 08:15:18;;;;;;;5.45;1.35;;;19.80;90.50;;;;;;5067128;28;20055;-84
2023/07/03 08:17:43;;;;;;;3.70;1.10;;;19.90;90.10;;;;;;5068581;28;20091;-83
2023/07/03 08:20:11;;;;;;;4.60;1.58;;;20.10;89.00;;;;;;5067766;28;20044;-85
2023/07/03 08:22:38;;;;;;;5.35;1.20;;;19.70;88.20;;;;;;5066266;28;20047;-83
2023/07/03 08:25:05;;;;;;;5.15;1.10;;;20.20;88.70;;;;;;5065902;28;20070;-83
2023/07/03 08:27:31;;;;;;;3.95;1.10;;;20.10;88.00;;;;;;5067743;28;20045;-82
2023/07/03 08:29:56;;;;;;;2.75;1.10;;;20.50;87.80;;;;;;5069091;28;20357;-83
2023/07/03 08:32:23;;;;;;;3.78;1.00;;;20.40;86.50;;;;;;5056708;28;20488;-82
2023/07/03 08:34:50;;;;;;;2.70;1.00;;;20.40;85.90;;;;;;5054584;28;20089;-84
2023/07/03 08:37:16;;;;;;;3.90;1.35;;;20.10;85.60;;;;;;5067569;28;20044;-82
2023/07/03 08:39:42;;;;;;;1.75;0.80;;;19.80;86.70;;;;;;5068522;28;20047;-82
2023/07/03 08:42:35;;;;;;;3.63;1.30;;;19.80;86.90;;;;;;5067379;28;20067;-82
2023/07/03 08:45:02;;;;;;;4.13;1.10;;;19.90;86.10;;;;;;5067511;28;20138;-83
2023/07/03 08:47:31;;;;;;;5.80;1.08;;;20.30;87.90;;;;;;5067004;28;20044;-82
2023/07/03 08:49:59;;;;;;;4.45;0.93;;;20.50;84.40;;;;;;5068805;28;20044;-82
2023/07/03 08:52:37;;;;;;;3.58;1.13;;;20.60;83.80;;;;;;5068527;28;20055;-82
2023/07/03 08:55:07;;;;;;;3.33;1.30;;;20.00;82.70;;;;;;5068463;28;20054;-82
2023/07/03 08:57:35;;;;;;;3.20;1.25;;;19.70;83.70;;;;;;5067331;28;20045;-82
2023/07/03 09:00:05;;;;;;;5.25;1.33;;;19.50;85.90;;;;;;5067499;28;20119;-81
2023/07/03 09:02:53;;;;;;;6.30;1.38;;;19.40;88.20;;;;;;5066188;28;20426;-81
2023/07/03 09:05:33;;;;;;;3.83;0.90;;;19.00;88.80;;;;;;5067199;28;20045;-81
2023/07/03 09:08:03;;;;;;;1.90;1.20;;;18.80;89.10;;;;;;5073726;28;20053;-83
2023/07/03 09:10:38;;;;;;;3.53;1.10;;;18.60;90.00;;;;;;5066396;28;20040;-82
2023/07/03 09:13:13;;;;;;;5.93;1.17;;;18.60;90.00;;;;;;5068829;28;20056;-82
2023/07/03 09:15:54;;;;;;;5.70;1.20;;;18.40;90.00;;;;;;5068784;28;20403;-82
2023/07/03 09:18:26;;;;;;;6.83;1.70;;;18.50;90.10;;;;;;5068432;28;20068;-82
2023/07/03 09:20:52;;;;;;;3.20;1.00;;;18.60;90.80;;;;;;5067765;28;20499;-82
2023/07/03 09:23:23;;;;;;;2.92;1.38;;;18.60;91.40;;;;;;5067581;28;20051;-81
2023/07/03 09:26:02;;;;;;;3.53;1.48;;;18.50;91.50;;;;;;5067117;28;20059;-81
2023/07/03 09:28:36;;;;;;;4.38;1.30;;;18.50;91.30;;;;;;5081609;28;20040;-82
2023/07/03 09:31:01;;;;;;;5.53;1.50;;;18.40;90.80;;;;;;5069276;28;20123;-84
2023/07/03 09:33:33;;;;;;;4.95;1.15;;;18.30;90.80;;;;;;5073183;28;20132;-83
2023/07/03 09:36:19;;;;;;;;;;;18.80;90.90;;;;;;5071631;28;20036;-86
2023/07/03 09:38:45;;;;;;;6.28;1.40;;;18.80;91.30;;;;;;5070850;28;20007;-84
2023/07/03 09:41:10;;;;;;;5.25;1.40;;;19.20;90.60;;;;;;5071667;28;20506;-84
2023/07/03 09:43:43;;;;;;;6.22;1.35;;;19.40;90.30;;;;;;5072948;28;20036;-85
2023/07/03 09:46:13;;;;;;;3.33;0.93;;;19.50;88.50;;;;;;5071369;28;20055;-85
2023/07/03 09:48:39;;;;;;;8.80;1.50;;;19.50;87.20;;;;;;5070842;28;20056;-84
2023/07/03 09:51:16;;;;;;;2.78;0.90;;;19.40;86.10;;;;;;5070660;28;20088;-83
2023/07/03 09:53:42;;;;;;;3.30;1.42;;;19.20;86.00;;;;;;5071794;28;20045;-83
2023/07/03 09:56:16;;;;;;;5.75;1.13;;;19.10;86.50;;;;;;5071465;28;20131;-82
2023/07/03 09:58:51;;;;;;;2.55;1.00;;;19.20;86.20;;;;;;5069904;28;20412;-81
2023/07/03 10:01:29;;;;;;;1.90;0.82;;;19.40;85.00;;;;;;5070968;28;20048;-82
2023/07/03 10:04:07;;;;;;;3.85;0.90;;;19.40;83.40;;;;;;5069245;28;20040;-81
2023/07/03 10:06:33;;;;;;;2.78;1.13;;;19.40;77.80;;;;;;5052331;28;20040;-83
2023/07/03 10:09:04;;;;;;;2.55;0.90;;;19.50;80.80;;;;;;5067308;28;20041;-80
2023/07/03 10:11:39;;;;;;;4.72;1.23;;;19.90;80.10;;;;;;5067076;28;20044;-82
2023/07/03 10:14:08;;;;;;;5.93;1.50;;;19.90;81.10;;;;;;5048939;28;20098;-82
2023/07/03 10:16:35;;;;;;;3.78;1.23;;;19.90;80.20;;;;;;5048725;28;20056;-82
2023/07/03 10:19:03;;;;;;;4.30;0.95;;;20.30;79.60;;;;;;5041140;28;20128;-82
2023/07/03 10:21:30;;;;;;;2.30;1.00;;;20.10;79.40;;;;;;5068934;28;20056;-80
2023/07/03 10:23:58;;;;;;;2.95;1.10;;;20.10;79.40;;;;;;5068930;28;20044;-83
2023/07/03 10:26:28;;;;;;;4.40;1.27;;;20.00;78.80;;;;;;5069347;28;20053;-82
2023/07/03 10:28:56;;;;;;;3.42;1.10;;;20.00;79.50;;;;;;5068681;28;20044;-82
2023/07/03 10:31:42;;;;;;;2.15;1.20;;;20.10;80.60;;;;;;5065672;28;20086;-82
2023/07/03 10:34:13;;;;;;;4.22;1.27;;;20.30;80.70;;;;;;5052070;28;20051;-83
2023/07/03 10:36:40;;;;;;;5.00;1.15;;;20.20;78.30;;;;;;5068523;28;20091;-81
2023/07/03 10:39:18;;;;;;;4.65;1.17;;;20.20;80.60;;;;;;5059803;28;20049;-82
2023/07/03 10:41:49;;;;;;;3.42;1.25;;;20.10;79.40;;;;;;5067923;28;20097;-83
2023/07/03 10:44:32;;;;;;;5.18;1.23;;;19.90;80.60;;;;;;5079524;28;20102;-82
2023/07/03 10:47:33;;;;;;;5.00;1.30;;;20.00;81.60;;;;;;5062964;28;20112;-81
2023/07/03 10:49:59;;;;;;;5.90;1.30;;;19.80;81.20;;;;;;5067480;28;20060;-80
2023/07/03 10:52:52;;;;;;;3.90;1.20;;;19.80;81.90;;;;;;5068609;28;20197;-81
2023/07/03 10:55:48;;;;;;;3.50;1.15;;;20.00;76.80;;;;;;5066035;28;20059;-83
2023/07/03 10:58:40;;;;;;;3.10;1.13;;;20.10;76.20;;;;;;5051455;28;20052;-81
2023/07/03 11:01:23;;;;;;;7.20;1.38;;;20.10;76.80;;;;;;5069741;28;20044;-82
2023/07/03 11:04:06;;;;;;;2.63;0.90;;;20.20;74.10;;;;;;5067960;28;20044;-82
2023/07/03 11:06:42;;;;;;;5.40;1.13;;;20.20;73.40;;;;;;5067353;28;20459;-82
2023/07/03 11:09:34;;;;;;;4.05;0.95;;;20.10;74.00;;;;;;5068032;28;20106;-82
2023/07/03 11:12:16;;;;;;;1.98;1.15;;;19.90;74.50;;;;;;5068439;28;20048;-81
2023/07/03 11:15:03;;;;;;;3.50;1.10;;;19.70;73.90;;;;;;5067954;28;20045;-81
2023/07/03 11:17:43;;;;;;;3.85;0.90;;;19.40;74.40;;;;;;5067944;28;20053;-81
2023/07/03 11:20:19;;;;;;;3.38;1.13;;;19.20;75.40;;;;;;5067880;28;20054;-81
2023/07/03 11:23:18;;;;;;;3.30;1.10;;;19.00;77.30;;;;;;5050515;28;20571;-82
2023/07/03 11:26:11;;;;;;;3.60;1.05;;;18.70;78.50;;;;;;5067593;28;20048;-81
2023/07/03 11:28:43;;;;;;;3.50;1.00;;;18.60;79.70;;;;;;5028635;28;20496;-80
2023/07/03 11:31:09;;;;;;;;;;;18.50;81.30;;;;;;5068408;28;20143;-80
2023/07/03 11:33:36;;;;;;;2.63;0.85;;;18.40;80.80;;;;;;5068846;28;19924;-84
2023/07/03 11:36:02;;;;;;;3.88;1.02;;;18.50;81.10;;;;;;5083011;28;20060;-82
2023/07/03 11:38:28;;;;;;;3.05;1.10;;;18.80;81.40;;;;;;5069922;28;20048;-83
2023/07/03 11:40:54;;;;;;;5.80;1.40;;;19.20;81.60;;;;;;5068739;28;20451;-82
2023/07/03 11:43:39;;;;;;;3.28;1.40;;;19.60;81.00;;;;;;5066301;28;20048;-83
2023/07/03 11:46:24;;;;;;;2.50;1.17;;;19.90;80.40;;;;;;5066767;28;20049;-82
2023/07/03 11:48:55;;;;;;;4.90;0.90;;;20.20;79.00;;;;;;5059864;28;20063;-81
2023/07/03 11:51:35;;;;;;;4.85;0.90;;;20.30;76.40;;;;;;5067119;28;20055;-82
2023/07/03 11:54:17;;;;;;;3.53;0.90;;;20.30;74.20;;;;;;5065197;28;20049;-82
2023/07/03 11:56:48;;;;;;;3.70;1.00;;;20.40;75.90;;;;;;5066444;28;20140;-80
2023/07/03 11:59:23;;;;;;;2.05;0.80;;;20.90;76.10;;;;;;5066404;28;20078;-81
2023/07/03 12:01:54;;;;;;;4.13;0.98;;;20.30;76.00;;;;;;5066631;28;20052;-83
2023/07/03 12:04:50;;;;;;;3.78;1.20;;;20.20;74.40;;;;;;5066897;28;20044;-80
2023/07/03 12:07:19;;;;;;;3.08;1.05;;;20.30;75.80;;;;;;5067068;28;20389;-80
2023/07/03 12:09:49;;;;;;;3.05;0.80;;;20.60;75.60;;;;;;5067918;28;20059;-80
2023/07/03 12:12:20;;;;;;;5.35;1.42;;;20.80;75.40;;;;;;5066451;28;20093;-81
2023/07/03 12:14:57;;;;;;;2.07;0.80;;;21.10;74.80;;;;;;5067110;28;20049;-81
2023/07/03 12:17:27;;;;;;;2.50;1.35;;;21.30;75.00;;;;;;5065195;28;20307;-80
2023/07/03 12:20:14;;;;;;;4.50;1.40;;;21.40;73.80;;;;;;5068275;28;20459;-82
2023/07/03 12:22:44;;;;;;;3.90;1.08;;;21.20;72.50;;;;;;5044208;28;20048;-81
2023/07/03 12:25:22;;;;;;;4.10;1.00;;;21.30;72.50;;;;;;5048280;28;20107;-81
2023/07/03 12:27:49;;;;;;;6.40;1.35;;;21.20;72.60;;;;;;5048945;28;20041;-82
2023/07/03 12:30:23;;;;;;;1.27;0.75;;;21.20;72.80;;;;;;5066124;28;20036;-81
2023/07/03 12:32:51;;;;;;;4.38;1.15;;;21.10;70.20;;;;;;5066924;28;20049;-82
2023/07/03 12:35:23;;;;;;;2.75;1.00;;;20.80;71.30;;;;;;5067213;28;20044;-81
2023/07/03 12:37:50;;;;;;;;;;;20.70;70.80;;;;;;5066148;28;20052;-80
2023/07/03 12:40:18;;;;;;;3.13;1.00;;;20.70;68.80;;;;;;5066186;28;19927;-76
2023/07/03 12:42:48;;;;;;;4.38;0.90;;;20.60;71.30;;;;;;5067930;28;20480;-83
2023/07/03 12:45:23;;;;;;;8.63;1.40;;;20.90;70.70;;;;;;5068858;28;20074;-81
2023/07/03 12:48:17;;;;;;;2.92;1.20;;;20.70;70.60;;;;;;5069094;28;20420;-80
2023/07/03 12:50:57;;;;;;;4.80;1.30;;;20.70;70.10;;;;;;5066201;28;20135;-82
2023/07/03 12:53:24;;;;;;;2.83;0.90;;;20.80;71.00;;;;;;5065519;28;20087;-81
2023/07/03 12:55:58;;;;;;;4.68;1.20;;;20.80;71.40;;;;;;5066183;28;20415;-84
2023/07/03 12:58:25;;;;;;;5.95;0.93;;;20.30;70.90;;;;;;5049615;28;20090;-81